Hutchins, Vermont
Current Conditions -  °F | °C
As of 4:35 PM on Friday 31 Oct 2014 (Local Time) from KEFK Reporting Station
Scattered Clouds Scattered Clouds  
Wind Chill: 39°   Ceiling: Unl
Heat Index: 43°   Visibility: 10mi
Dew Point: 30°   Wind: 6mph
Humidity: 60%   Direction: 350°N
Pressure: 30.02"   Gusts: NA
Location:  44.8557°N, 72.6016°W
Report Text: KEFK 312035Z AUTO 35005KT 10SM SCT049 06/M01 A3002 RMK AO2 T00601012
Loading
Personal Weather Stations






























Interactive Weather Map New forecast layout! Learn more

10-Day Weather Forecast

Advertisements
Track Severe Weather on mobile